sensor_id;sensor_type;location;lat;lon;timestamp;P1;durP1;ratioP1;P2;durP2;ratioP2
69703;SDS011;56967;43.538;-5.646;2023-04-03T00:01:27;12.60;;;2.10;;
69703;SDS011;56967;43.538;-5.646;2023-04-03T00:03:53;9.57;;;1.90;;
69703;SDS011;56967;43.538;-5.646;2023-04-03T00:06:18;4.72;;;1.00;;
69703;SDS011;56967;43.538;-5.646;2023-04-03T00:08:44;17.02;;;1.92;;
69703;SDS011;56967;43.538;-5.646;2023-04-03T00:11:10;6.75;;;1.38;;
69703;SDS011;56967;43.538;-5.646;2023-04-03T00:13:36;9.68;;;1.65;;
69703;SDS011;56967;43.538;-5.646;2023-04-03T00:16:03;7.43;;;1.27;;
69703;SDS011;56967;43.538;-5.646;2023-04-03T00:18:29;7.00;;;1.40;;
69703;SDS011;56967;43.538;-5.646;2023-04-03T00:20:54;4.40;;;1.10;;
69703;SDS011;56967;43.538;-5.646;2023-04-03T00:23:20;7.75;;;1.27;;
69703;SDS011;56967;43.538;-5.646;2023-04-03T00:25:46;12.65;;;1.35;;
69703;SDS011;56967;43.538;-5.646;2023-04-03T00:28:12;9.55;;;1.85;;
69703;SDS011;56967;43.538;-5.646;2023-04-03T00:30:37;5.20;;;1.35;;
69703;SDS011;56967;43.538;-5.646;2023-04-03T00:33:03;8.25;;;1.63;;
69703;SDS011;56967;43.538;-5.646;2023-04-03T00:35:28;7.65;;;1.70;;
69703;SDS011;56967;43.538;-5.646;2023-04-03T00:37:55;12.68;;;1.92;;
69703;SDS011;56967;43.538;-5.646;2023-04-03T00:40:22;9.75;;;1.60;;
69703;SDS011;56967;43.538;-5.646;2023-04-03T00:42:51;13.82;;;1.40;;
69703;SDS011;56967;43.538;-5.646;2023-04-03T00:48:01;8.50;;;1.00;;
69703;SDS011;56967;43.538;-5.646;2023-04-03T00:50:30;8.48;;;1.25;;
69703;SDS011;56967;43.538;-5.646;2023-04-03T00:52:57;9.90;;;1.35;;
69703;SDS011;56967;43.538;-5.646;2023-04-03T00:55:23;8.00;;;1.10;;
69703;SDS011;56967;43.538;-5.646;2023-04-03T00:57:50;5.10;;;1.05;;
69703;SDS011;56967;43.538;-5.646;2023-04-03T01:00:17;7.95;;;1.33;;
69703;SDS011;56967;43.538;-5.646;2023-04-03T01:02:45;12.38;;;1.23;;
69703;SDS011;56967;43.538;-5.646;2023-04-03T01:05:11;10.00;;;1.38;;
69703;SDS011;56967;43.538;-5.646;2023-04-03T01:07:37;4.30;;;0.93;;
69703;SDS011;56967;43.538;-5.646;2023-04-03T01:10:05;4.30;;;1.00;;
69703;SDS011;56967;43.538;-5.646;2023-04-03T01:12:33;8.48;;;1.10;;
69703;SDS011;56967;43.538;-5.646;2023-04-03T01:15:06;7.72;;;1.10;;
69703;SDS011;56967;43.538;-5.646;2023-04-03T01:17:36;8.65;;;1.27;;
69703;SDS011;56967;43.538;-5.646;2023-04-03T01:25:42;5.50;;;1.20;;
69703;SDS011;56967;43.538;-5.646;2023-04-03T01:28:11;9.02;;;1.10;;
69703;SDS011;56967;43.538;-5.646;2023-04-03T01:33:53;8.50;;;1.50;;
69703;SDS011;56967;43.538;-5.646;2023-04-03T01:36:21;9.57;;;1.20;;
69703;SDS011;56967;43.538;-5.646;2023-04-03T01:38:49;6.40;;;1.30;;
69703;SDS011;56967;43.538;-5.646;2023-04-03T01:41:15;9.55;;;1.70;;
69703;SDS011;56967;43.538;-5.646;2023-04-03T01:43:42;12.13;;;1.38;;
69703;SDS011;56967;43.538;-5.646;2023-04-03T01:46:08;11.45;;;1.45;;
69703;SDS011;56967;43.538;-5.646;2023-04-03T01:48:34;8.65;;;1.75;;
69703;SDS011;56967;43.538;-5.646;2023-04-03T01:51:00;12.65;;;1.55;;
69703;SDS011;56967;43.538;-5.646;2023-04-03T01:53:25;8.95;;;1.80;;
69703;SDS011;56967;43.538;-5.646;2023-04-03T01:55:51;6.68;;;1.27;;
69703;SDS011;56967;43.538;-5.646;2023-04-03T01:58:16;11.30;;;1.50;;
69703;SDS011;56967;43.538;-5.646;2023-04-03T02:00:42;15.90;;;1.70;;
69703;SDS011;56967;43.538;-5.646;2023-04-03T02:03:07;13.45;;;2.20;;
69703;SDS011;56967;43.538;-5.646;2023-04-03T02:05:33;10.30;;;1.05;;
69703;SDS011;56967;43.538;-5.646;2023-04-03T02:07:59;9.90;;;1.52;;
69703;SDS011;56967;43.538;-5.646;2023-04-03T02:10:25;8.60;;;1.60;;
69703;SDS011;56967;43.538;-5.646;2023-04-03T02:12:50;7.05;;;1.42;;
69703;SDS011;56967;43.538;-5.646;2023-04-03T02:15:16;8.80;;;1.60;;
69703;SDS011;56967;43.538;-5.646;2023-04-03T02:17:42;11.43;;;1.70;;
69703;SDS011;56967;43.538;-5.646;2023-04-03T02:20:07;9.57;;;1.65;;
69703;SDS011;56967;43.538;-5.646;2023-04-03T02:22:34;7.90;;;1.20;;
69703;SDS011;56967;43.538;-5.646;2023-04-03T02:25:00;9.27;;;1.25;;
69703;SDS011;56967;43.538;-5.646;2023-04-03T02:27:26;8.55;;;1.90;;
69703;SDS011;56967;43.538;-5.646;2023-04-03T02:29:51;7.15;;;1.70;;
69703;SDS011;56967;43.538;-5.646;2023-04-03T02:32:17;8.05;;;1.75;;
69703;SDS011;56967;43.538;-5.646;2023-04-03T02:34:42;10.80;;;1.27;;
69703;SDS011;56967;43.538;-5.646;2023-04-03T02:37:08;7.22;;;1.30;;
69703;SDS011;56967;43.538;-5.646;2023-04-03T02:39:34;12.43;;;1.50;;
69703;SDS011;56967;43.538;-5.646;2023-04-03T02:42:00;7.93;;;1.63;;
69703;SDS011;56967;43.538;-5.646;2023-04-03T02:44:25;8.25;;;1.55;;
69703;SDS011;56967;43.538;-5.646;2023-04-03T02:46:51;8.07;;;1.13;;
69703;SDS011;56967;43.538;-5.646;2023-04-03T02:49:18;14.68;;;1.40;;
69703;SDS011;56967;43.538;-5.646;2023-04-03T02:51:43;9.93;;;1.35;;
69703;SDS011;56967;43.538;-5.646;2023-04-03T02:54:09;8.90;;;1.38;;
69703;SDS011;56967;43.538;-5.646;2023-04-03T02:56:34;10.85;;;1.70;;
69703;SDS011;56967;43.538;-5.646;2023-04-03T02:59:00;8.25;;;1.13;;
69703;SDS011;56967;43.538;-5.646;2023-04-03T03:01:26;14.55;;;1.50;;
69703;SDS011;56967;43.538;-5.646;2023-04-03T03:03:53;8.32;;;1.73;;
69703;SDS011;56967;43.538;-5.646;2023-04-03T03:06:19;8.27;;;1.40;;
69703;SDS011;56967;43.538;-5.646;2023-04-03T03:08:44;7.60;;;1.27;;
69703;SDS011;56967;43.538;-5.646;2023-04-03T03:11:11;9.32;;;1.40;;
69703;SDS011;56967;43.538;-5.646;2023-04-03T03:13:37;8.95;;;1.33;;
69703;SDS011;56967;43.538;-5.646;2023-04-03T03:16:03;8.45;;;1.20;;
69703;SDS011;56967;43.538;-5.646;2023-04-03T03:18:29;11.82;;;1.67;;
69703;SDS011;56967;43.538;-5.646;2023-04-03T03:20:55;7.65;;;1.15;;
69703;SDS011;56967;43.538;-5.646;2023-04-03T03:23:23;8.23;;;1.75;;
69703;SDS011;56967;43.538;-5.646;2023-04-03T03:25:54;6.55;;;1.15;;
69703;SDS011;56967;43.538;-5.646;2023-04-03T03:28:24;5.65;;;1.10;;
69703;SDS011;56967;43.538;-5.646;2023-04-03T03:30:50;8.90;;;1.42;;
69703;SDS011;56967;43.538;-5.646;2023-04-03T03:33:16;8.48;;;1.70;;
69703;SDS011;56967;43.538;-5.646;2023-04-03T03:35:42;6.50;;;1.45;;
69703;SDS011;56967;43.538;-5.646;2023-04-03T03:38:08;12.95;;;1.60;;
69703;SDS011;56967;43.538;-5.646;2023-04-03T03:40:34;8.85;;;1.45;;
69703;SDS011;56967;43.538;-5.646;2023-04-03T03:43:00;6.25;;;0.93;;
69703;SDS011;56967;43.538;-5.646;2023-04-03T03:45:25;7.60;;;1.30;;
69703;SDS011;56967;43.538;-5.646;2023-04-03T03:47:51;6.80;;;1.33;;
69703;SDS011;56967;43.538;-5.646;2023-04-03T03:50:16;7.55;;;1.42;;
69703;SDS011;56967;43.538;-5.646;2023-04-03T03:52:42;6.78;;;1.40;;
69703;SDS011;56967;43.538;-5.646;2023-04-03T03:55:08;6.05;;;1.23;;
69703;SDS011;56967;43.538;-5.646;2023-04-03T03:57:34;4.90;;;1.00;;
69703;SDS011;56967;43.538;-5.646;2023-04-03T04:00:00;8.52;;;1.98;;
69703;SDS011;56967;43.538;-5.646;2023-04-03T04:02:25;6.03;;;1.33;;
69703;SDS011;56967;43.538;-5.646;2023-04-03T04:04:51;4.70;;;1.30;;
69703;SDS011;56967;43.538;-5.646;2023-04-03T04:07:16;10.27;;;1.70;;
69703;SDS011;56967;43.538;-5.646;2023-04-03T04:09:42;6.57;;;1.45;;
69703;SDS011;56967;43.538;-5.646;2023-04-03T04:12:07;9.85;;;1.50;;
69703;SDS011;56967;43.538;-5.646;2023-04-03T04:14:33;7.97;;;1.45;;
69703;SDS011;56967;43.538;-5.646;2023-04-03T04:16:58;8.55;;;2.22;;
69703;SDS011;56967;43.538;-5.646;2023-04-03T04:19:24;14.55;;;2.88;;
69703;SDS011;56967;43.538;-5.646;2023-04-03T04:21:49;5.70;;;1.95;;
69703;SDS011;56967;43.538;-5.646;2023-04-03T04:24:15;7.65;;;1.80;;
69703;SDS011;56967;43.538;-5.646;2023-04-03T04:26:40;4.25;;;1.25;;
69703;SDS011;56967;43.538;-5.646;2023-04-03T04:29:06;7.07;;;1.60;;
69703;SDS011;56967;43.538;-5.646;2023-04-03T04:31:33;7.97;;;1.60;;
69703;SDS011;56967;43.538;-5.646;2023-04-03T04:33:59;10.02;;;1.42;;
69703;SDS011;56967;43.538;-5.646;2023-04-03T04:36:25;8.13;;;1.98;;
69703;SDS011;56967;43.538;-5.646;2023-04-03T04:38:50;8.55;;;1.80;;
69703;SDS011;56967;43.538;-5.646;2023-04-03T04:41:18;8.52;;;1.50;;
69703;SDS011;56967;43.538;-5.646;2023-04-03T04:43:47;11.23;;;1.90;;
69703;SDS011;56967;43.538;-5.646;2023-04-03T04:46:13;7.90;;;1.63;;
69703;SDS011;56967;43.538;-5.646;2023-04-03T04:48:39;7.45;;;1.25;;
69703;SDS011;56967;43.538;-5.646;2023-04-03T04:51:05;8.73;;;1.27;;
69703;SDS011;56967;43.538;-5.646;2023-04-03T04:53:31;5.43;;;1.52;;
69703;SDS011;56967;43.538;-5.646;2023-04-03T04:55:57;9.63;;;1.67;;
69703;SDS011;56967;43.538;-5.646;2023-04-03T04:58:23;7.10;;;1.20;;
69703;SDS011;56967;43.538;-5.646;2023-04-03T05:00:49;5.75;;;1.50;;
69703;SDS011;56967;43.538;-5.646;2023-04-03T05:03:14;8.23;;;1.58;;
69703;SDS011;56967;43.538;-5.646;2023-04-03T05:05:40;9.27;;;1.60;;
69703;SDS011;56967;43.538;-5.646;2023-04-03T05:08:06;9.77;;;1.63;;
69703;SDS011;56967;43.538;-5.646;2023-04-03T05:10:33;9.25;;;1.92;;
69703;SDS011;56967;43.538;-5.646;2023-04-03T05:12:58;7.88;;;2.50;;
69703;SDS011;56967;43.538;-5.646;2023-04-03T05:15:24;9.90;;;2.58;;
69703;SDS011;56967;43.538;-5.646;2023-04-03T05:17:49;9.25;;;2.20;;
69703;SDS011;56967;43.538;-5.646;2023-04-03T05:20:16;9.95;;;2.58;;
69703;SDS011;56967;43.538;-5.646;2023-04-03T05:22:41;9.32;;;2.25;;
69703;SDS011;56967;43.538;-5.646;2023-04-03T05:25:07;7.35;;;2.30;;
69703;SDS011;56967;43.538;-5.646;2023-04-03T05:27:33;12.20;;;2.30;;
69703;SDS011;56967;43.538;-5.646;2023-04-03T05:29:59;8.75;;;2.20;;
69703;SDS011;56967;43.538;-5.646;2023-04-03T05:32:25;6.00;;;2.00;;
69703;SDS011;56967;43.538;-5.646;2023-04-03T05:34:53;7.88;;;2.30;;
69703;SDS011;56967;43.538;-5.646;2023-04-03T05:37:19;4.72;;;2.00;;
69703;SDS011;56967;43.538;-5.646;2023-04-03T05:39:45;7.43;;;2.15;;
69703;SDS011;56967;43.538;-5.646;2023-04-03T05:42:11;12.05;;;2.40;;
69703;SDS011;56967;43.538;-5.646;2023-04-03T05:44:36;8.07;;;2.30;;
69703;SDS011;56967;43.538;-5.646;2023-04-03T05:47:03;4.35;;;1.95;;
69703;SDS011;56967;43.538;-5.646;2023-04-03T05:49:28;6.65;;;2.33;;
69703;SDS011;56967;43.538;-5.646;2023-04-03T05:51:54;9.93;;;2.35;;
69703;SDS011;56967;43.538;-5.646;2023-04-03T05:54:24;7.82;;;2.40;;
69703;SDS011;56967;43.538;-5.646;2023-04-03T05:56:51;11.38;;;2.47;;
69703;SDS011;56967;43.538;-5.646;2023-04-03T05:59:18;10.05;;;2.08;;
69703;SDS011;56967;43.538;-5.646;2023-04-03T06:01:44;6.65;;;2.15;;
69703;SDS011;56967;43.538;-5.646;2023-04-03T06:04:10;4.60;;;2.00;;
69703;SDS011;56967;43.538;-5.646;2023-04-03T06:09:20;5.95;;;2.15;;
69703;SDS011;56967;43.538;-5.646;2023-04-03T06:11:47;4.82;;;1.95;;
69703;SDS011;56967;43.538;-5.646;2023-04-03T06:14:12;12.82;;;2.10;;
69703;SDS011;56967;43.538;-5.646;2023-04-03T06:16:38;5.13;;;2.42;;
69703;SDS011;56967;43.538;-5.646;2023-04-03T06:19:04;11.52;;;2.72;;
69703;SDS011;56967;43.538;-5.646;2023-04-03T06:21:32;7.68;;;2.05;;
69703;SDS011;56967;43.538;-5.646;2023-04-03T06:23:57;9.50;;;2.58;;
69703;SDS011;56967;43.538;-5.646;2023-04-03T06:26:23;6.13;;;2.20;;
69703;SDS011;56967;43.538;-5.646;2023-04-03T06:28:48;7.95;;;2.47;;
69703;SDS011;56967;43.538;-5.646;2023-04-03T06:31:14;6.03;;;2.33;;
69703;SDS011;56967;43.538;-5.646;2023-04-03T06:33:40;8.45;;;2.33;;
69703;SDS011;56967;43.538;-5.646;2023-04-03T06:36:06;7.38;;;2.35;;
69703;SDS011;56967;43.538;-5.646;2023-04-03T06:38:32;5.90;;;2.10;;
69703;SDS011;56967;43.538;-5.646;2023-04-03T06:40:59;7.70;;;2.30;;
69703;SDS011;56967;43.538;-5.646;2023-04-03T06:43:25;6.15;;;2.08;;
69703;SDS011;56967;43.538;-5.646;2023-04-03T06:45:51;4.95;;;2.20;;
69703;SDS011;56967;43.538;-5.646;2023-04-03T06:48:17;5.53;;;2.35;;
69703;SDS011;56967;43.538;-5.646;2023-04-03T06:50:42;6.15;;;2.50;;
69703;SDS011;56967;43.538;-5.646;2023-04-03T06:53:08;6.35;;;2.40;;
69703;SDS011;56967;43.538;-5.646;2023-04-03T06:55:34;7.75;;;2.40;;
69703;SDS011;56967;43.538;-5.646;2023-04-03T06:58:00;6.28;;;2.33;;
69703;SDS011;56967;43.538;-5.646;2023-04-03T07:00:27;6.32;;;2.70;;
69703;SDS011;56967;43.538;-5.646;2023-04-03T07:02:52;13.02;;;3.20;;
69703;SDS011;56967;43.538;-5.646;2023-04-03T07:05:18;5.47;;;2.80;;
69703;SDS011;56967;43.538;-5.646;2023-04-03T07:07:45;5.10;;;2.35;;
69703;SDS011;56967;43.538;-5.646;2023-04-03T07:10:10;4.60;;;2.47;;
69703;SDS011;56967;43.538;-5.646;2023-04-03T07:12:36;6.38;;;2.63;;
69703;SDS011;56967;43.538;-5.646;2023-04-03T07:15:03;7.72;;;2.63;;
69703;SDS011;56967;43.538;-5.646;2023-04-03T07:17:30;7.88;;;2.60;;
69703;SDS011;56967;43.538;-5.646;2023-04-03T07:19:56;4.80;;;2.50;;
69703;SDS011;56967;43.538;-5.646;2023-04-03T07:22:21;7.80;;;3.03;;
69703;SDS011;56967;43.538;-5.646;2023-04-03T07:24:47;8.35;;;2.70;;
69703;SDS011;56967;43.538;-5.646;2023-04-03T07:27:13;7.07;;;2.90;;
69703;SDS011;56967;43.538;-5.646;2023-04-03T07:29:38;8.35;;;2.92;;
69703;SDS011;56967;43.538;-5.646;2023-04-03T07:32:05;5.60;;;3.15;;
69703;SDS011;56967;43.538;-5.646;2023-04-03T07:34:31;7.35;;;3.30;;
69703;SDS011;56967;43.538;-5.646;2023-04-03T07:36:57;4.90;;;2.97;;
69703;SDS011;56967;43.538;-5.646;2023-04-03T07:39:23;5.95;;;2.70;;
69703;SDS011;56967;43.538;-5.646;2023-04-03T07:41:49;6.22;;;3.00;;
69703;SDS011;56967;43.538;-5.646;2023-04-03T07:44:15;6.75;;;3.05;;
69703;SDS011;56967;43.538;-5.646;2023-04-03T07:46:41;6.40;;;3.30;;
69703;SDS011;56967;43.538;-5.646;2023-04-03T07:49:07;5.65;;;3.08;;
69703;SDS011;56967;43.538;-5.646;2023-04-03T07:51:33;7.32;;;2.90;;
69703;SDS011;56967;43.538;-5.646;2023-04-03T07:53:58;6.93;;;2.85;;
69703;SDS011;56967;43.538;-5.646;2023-04-03T07:56:24;9.68;;;3.10;;
69703;SDS011;56967;43.538;-5.646;2023-04-03T07:58:50;6.53;;;2.90;;
69703;SDS011;56967;43.538;-5.646;2023-04-03T08:01:16;5.78;;;2.75;;
69703;SDS011;56967;43.538;-5.646;2023-04-03T08:03:41;7.50;;;2.70;;
69703;SDS011;56967;43.538;-5.646;2023-04-03T08:06:07;5.82;;;2.83;;
69703;SDS011;56967;43.538;-5.646;2023-04-03T08:08:33;4.88;;;2.30;;
69703;SDS011;56967;43.538;-5.646;2023-04-03T08:11:00;5.30;;;2.42;;
69703;SDS011;56967;43.538;-5.646;2023-04-03T08:13:28;5.35;;;2.50;;
69703;SDS011;56967;43.538;-5.646;2023-04-03T08:15:54;5.40;;;2.45;;
69703;SDS011;56967;43.538;-5.646;2023-04-03T08:18:22;5.28;;;2.72;;
69703;SDS011;56967;43.538;-5.646;2023-04-03T08:20:49;5.20;;;2.65;;
69703;SDS011;56967;43.538;-5.646;2023-04-03T08:23:16;5.78;;;2.88;;
69703;SDS011;56967;43.538;-5.646;2023-04-03T08:25:42;8.07;;;2.63;;
69703;SDS011;56967;43.538;-5.646;2023-04-03T08:28:09;5.95;;;2.70;;
69703;SDS011;56967;43.538;-5.646;2023-04-03T08:30:38;6.55;;;2.58;;
69703;SDS011;56967;43.538;-5.646;2023-04-03T08:33:05;5.72;;;2.50;;
69703;SDS011;56967;43.538;-5.646;2023-04-03T08:35:31;4.78;;;2.38;;
69703;SDS011;56967;43.538;-5.646;2023-04-03T08:37:56;4.15;;;2.35;;
69703;SDS011;56967;43.538;-5.646;2023-04-03T08:40:22;4.57;;;2.20;;
69703;SDS011;56967;43.538;-5.646;2023-04-03T08:45:21;6.07;;;2.35;;
69703;SDS011;56967;43.538;-5.646;2023-04-03T08:50:50;6.88;;;2.00;;
69703;SDS011;56967;43.538;-5.646;2023-04-03T08:53:21;8.20;;;2.42;;
69703;SDS011;56967;43.538;-5.646;2023-04-03T08:58:21;5.70;;;2.20;;
69703;SDS011;56967;43.538;-5.646;2023-04-03T09:03:28;5.82;;;1.73;;
69703;SDS011;56967;43.538;-5.646;2023-04-03T09:14:45;4.97;;;1.35;;
69703;SDS011;56967;43.538;-5.646;2023-04-03T09:17:35;4.80;;;1.10;;
69703;SDS011;56967;43.538;-5.646;2023-04-03T09:22:54;14.10;;;1.52;;
69703;SDS011;56967;43.538;-5.646;2023-04-03T09:25:24;4.78;;;1.27;;
69703;SDS011;56967;43.538;-5.646;2023-04-03T09:27:53;3.05;;;1.08;;
69703;SDS011;56967;43.538;-5.646;2023-04-03T09:30:22;5.95;;;1.48;;
69703;SDS011;56967;43.538;-5.646;2023-04-03T09:32:51;7.68;;;0.98;;
69703;SDS011;56967;43.538;-5.646;2023-04-03T09:35:19;3.47;;;0.90;;
69703;SDS011;56967;43.538;-5.646;2023-04-03T09:37:51;7.90;;;1.23;;
69703;SDS011;56967;43.538;-5.646;2023-04-03T09:42:50;7.43;;;1.10;;
69703;SDS011;56967;43.538;-5.646;2023-04-03T09:45:22;7.68;;;1.30;;
69703;SDS011;56967;43.538;-5.646;2023-04-03T09:50:30;6.80;;;1.20;;
69703;SDS011;56967;43.538;-5.646;2023-04-03T09:52:56;8.20;;;1.20;;
69703;SDS011;56967;43.538;-5.646;2023-04-03T09:55:22;7.90;;;1.20;;
69703;SDS011;56967;43.538;-5.646;2023-04-03T09:58:03;7.38;;;1.30;;
69703;SDS011;56967;43.538;-5.646;2023-04-03T10:02:58;6.18;;;1.17;;
69703;SDS011;56967;43.538;-5.646;2023-04-03T10:05:32;8.23;;;1.20;;
69703;SDS011;56967;43.538;-5.646;2023-04-03T10:10:41;7.22;;;1.05;;
69703;SDS011;56967;43.538;-5.646;2023-04-03T10:13:12;5.88;;;1.08;;
69703;SDS011;56967;43.538;-5.646;2023-04-03T10:15:50;4.93;;;0.97;;
69703;SDS011;56967;43.538;-5.646;2023-04-03T10:58:12;10.23;;;1.27;;
69703;SDS011;56967;43.538;-5.646;2023-04-03T11:01:18;8.70;;;1.40;;
69703;SDS011;56967;43.538;-5.646;2023-04-03T11:03:49;6.38;;;1.38;;
69703;SDS011;56967;43.538;-5.646;2023-04-03T11:06:21;13.82;;;1.90;;
69703;SDS011;56967;43.538;-5.646;2023-04-03T11:08:58;6.45;;;1.58;;
69703;SDS011;56967;43.538;-5.646;2023-04-03T11:11:32;6.78;;;1.20;;
69703;SDS011;56967;43.538;-5.646;2023-04-03T11:16:42;6.30;;;1.27;;
69703;SDS011;56967;43.538;-5.646;2023-04-03T11:19:14;7.32;;;1.42;;
69703;SDS011;56967;43.538;-5.646;2023-04-03T11:25:32;6.85;;;1.45;;
69703;SDS011;56967;43.538;-5.646;2023-04-03T11:27:55;8.07;;;1.23;;
69703;SDS011;56967;43.538;-5.646;2023-04-03T11:30:33;11.88;;;1.35;;
69703;SDS011;56967;43.538;-5.646;2023-04-03T11:35:52;9.63;;;1.23;;
69703;SDS011;56967;43.538;-5.646;2023-04-03T11:38:28;6.70;;;1.27;;
69703;SDS011;56967;43.538;-5.646;2023-04-03T11:41:01;7.55;;;1.58;;
69703;SDS011;56967;43.538;-5.646;2023-04-03T11:43:31;11.27;;;1.67;;
69703;SDS011;56967;43.538;-5.646;2023-04-03T11:46:02;9.90;;;1.42;;
69703;SDS011;56967;43.538;-5.646;2023-04-03T11:50:57;7.90;;;1.40;;
69703;SDS011;56967;43.538;-5.646;2023-04-03T11:53:33;10.30;;;1.20;;
69703;SDS011;56967;43.538;-5.646;2023-04-03T11:56:01;6.85;;;1.20;;
69703;SDS011;56967;43.538;-5.646;2023-04-03T12:04:11;5.93;;;1.13;;
69703;SDS011;56967;43.538;-5.646;2023-04-03T12:07:11;8.38;;;1.25;;
69703;SDS011;56967;43.538;-5.646;2023-04-03T12:17:49;5.93;;;1.25;;
69703;SDS011;56967;43.538;-5.646;2023-04-03T12:26:26;3.65;;;1.05;;
69703;SDS011;56967;43.538;-5.646;2023-04-03T12:28:55;8.70;;;1.30;;
69703;SDS011;56967;43.538;-5.646;2023-04-03T12:31:22;5.63;;;0.70;;
69703;SDS011;56967;43.538;-5.646;2023-04-03T12:36:42;4.97;;;1.08;;
69703;SDS011;56967;43.538;-5.646;2023-04-03T12:42:39;6.75;;;1.38;;
69703;SDS011;56967;43.538;-5.646;2023-04-03T12:45:29;12.88;;;1.27;;
69703;SDS011;56967;43.538;-5.646;2023-04-03T12:48:24;4.45;;;1.00;;
69703;SDS011;56967;43.538;-5.646;2023-04-03T12:50:51;5.93;;;1.30;;
69703;SDS011;56967;43.538;-5.646;2023-04-03T12:58:54;7.07;;;1.38;;
69703;SDS011;56967;43.538;-5.646;2023-04-03T13:01:37;9.07;;;1.58;;
69703;SDS011;56967;43.538;-5.646;2023-04-03T13:04:03;10.10;;;2.10;;
69703;SDS011;56967;43.538;-5.646;2023-04-03T13:06:39;8.40;;;1.40;;
69703;SDS011;56967;43.538;-5.646;2023-04-03T13:09:25;5.82;;;1.00;;
69703;SDS011;56967;43.538;-5.646;2023-04-03T13:11:57;8.50;;;1.00;;
69703;SDS011;56967;43.538;-5.646;2023-04-03T13:14:26;4.75;;;1.02;;
69703;SDS011;56967;43.538;-5.646;2023-04-03T13:17:03;8.02;;;1.20;;
69703;SDS011;56967;43.538;-5.646;2023-04-03T13:19:37;6.60;;;1.17;;
69703;SDS011;56967;43.538;-5.646;2023-04-03T13:22:04;4.40;;;1.00;;
69703;SDS011;56967;43.538;-5.646;2023-04-03T13:24:35;6.80;;;1.25;;
69703;SDS011;56967;43.538;-5.646;2023-04-03T13:27:02;6.38;;;1.00;;
69703;SDS011;56967;43.538;-5.646;2023-04-03T13:29:31;6.13;;;1.40;;
69703;SDS011;56967;43.538;-5.646;2023-04-03T13:31:59;10.35;;;1.38;;
69703;SDS011;56967;43.538;-5.646;2023-04-03T13:34:35;6.00;;;1.13;;
69703;SDS011;56967;43.538;-5.646;2023-04-03T13:37:03;4.05;;;0.82;;
69703;SDS011;56967;43.538;-5.646;2023-04-03T13:39:34;12.10;;;1.30;;
69703;SDS011;56967;43.538;-5.646;2023-04-03T13:42:14;6.80;;;1.40;;
69703;SDS011;56967;43.538;-5.646;2023-04-03T13:44:42;8.63;;;1.35;;
69703;SDS011;56967;43.538;-5.646;2023-04-03T13:49:41;10.25;;;1.30;;
69703;SDS011;56967;43.538;-5.646;2023-04-03T13:54:59;3.50;;;1.00;;
69703;SDS011;56967;43.538;-5.646;2023-04-03T13:57:26;6.25;;;1.20;;
69703;SDS011;56967;43.538;-5.646;2023-04-03T13:59:53;6.50;;;1.38;;
69703;SDS011;56967;43.538;-5.646;2023-04-03T14:02:38;7.47;;;1.20;;
69703;SDS011;56967;43.538;-5.646;2023-04-03T14:05:04;8.60;;;1.10;;
69703;SDS011;56967;43.538;-5.646;2023-04-03T14:07:33;7.93;;;1.30;;
69703;SDS011;56967;43.538;-5.646;2023-04-03T14:09:59;10.13;;;1.40;;
69703;SDS011;56967;43.538;-5.646;2023-04-03T14:12:29;8.77;;;1.17;;
69703;SDS011;56967;43.538;-5.646;2023-04-03T14:14:59;4.80;;;1.17;;
69703;SDS011;56967;43.538;-5.646;2023-04-03T14:17:26;6.68;;;1.27;;
69703;SDS011;56967;43.538;-5.646;2023-04-03T14:19:53;9.05;;;1.67;;
69703;SDS011;56967;43.538;-5.646;2023-04-03T14:22:21;7.32;;;1.58;;
69703;SDS011;56967;43.538;-5.646;2023-04-03T14:24:52;5.75;;;1.30;;
69703;SDS011;56967;43.538;-5.646;2023-04-03T14:27:20;5.32;;;1.27;;
69703;SDS011;56967;43.538;-5.646;2023-04-03T14:29:48;4.47;;;1.45;;
69703;SDS011;56967;43.538;-5.646;2023-04-03T14:32:15;6.47;;;1.63;;
69703;SDS011;56967;43.538;-5.646;2023-04-03T14:34:43;10.57;;;1.73;;
69703;SDS011;56967;43.538;-5.646;2023-04-03T14:37:12;10.55;;;1.30;;
69703;SDS011;56967;43.538;-5.646;2023-04-03T14:39:40;4.10;;;0.93;;
69703;SDS011;56967;43.538;-5.646;2023-04-03T14:42:09;8.68;;;1.52;;
69703;SDS011;56967;43.538;-5.646;2023-04-03T14:44:37;5.05;;;1.20;;
69703;SDS011;56967;43.538;-5.646;2023-04-03T14:47:03;5.93;;;1.27;;
69703;SDS011;56967;43.538;-5.646;2023-04-03T14:49:29;6.93;;;1.20;;
69703;SDS011;56967;43.538;-5.646;2023-04-03T14:51:55;6.20;;;0.82;;
69703;SDS011;56967;43.538;-5.646;2023-04-03T14:54:23;7.47;;;1.30;;
69703;SDS011;56967;43.538;-5.646;2023-04-03T14:56:54;5.35;;;1.10;;
69703;SDS011;56967;43.538;-5.646;2023-04-03T14:59:21;6.68;;;1.20;;
69703;SDS011;56967;43.538;-5.646;2023-04-03T15:01:47;6.07;;;1.17;;
69703;SDS011;56967;43.538;-5.646;2023-04-03T15:04:17;7.00;;;1.15;;
69703;SDS011;56967;43.538;-5.646;2023-04-03T15:06:45;6.57;;;1.10;;
69703;SDS011;56967;43.538;-5.646;2023-04-03T15:09:29;6.18;;;1.27;;
69703;SDS011;56967;43.538;-5.646;2023-04-03T15:11:55;11.07;;;1.02;;
69703;SDS011;56967;43.538;-5.646;2023-04-03T15:14:21;5.53;;;0.95;;
69703;SDS011;56967;43.538;-5.646;2023-04-03T15:16:47;5.45;;;1.20;;
69703;SDS011;56967;43.538;-5.646;2023-04-03T15:19:13;4.90;;;1.20;;
69703;SDS011;56967;43.538;-5.646;2023-04-03T15:21:39;6.25;;;1.30;;
69703;SDS011;56967;43.538;-5.646;2023-04-03T15:24:05;5.25;;;1.27;;
69703;SDS011;56967;43.538;-5.646;2023-04-03T15:26:31;6.68;;;1.23;;
69703;SDS011;56967;43.538;-5.646;2023-04-03T15:28:57;7.35;;;1.42;;
69703;SDS011;56967;43.538;-5.646;2023-04-03T15:31:22;7.30;;;1.20;;
69703;SDS011;56967;43.538;-5.646;2023-04-03T15:33:48;8.27;;;1.17;;
69703;SDS011;56967;43.538;-5.646;2023-04-03T15:36:14;3.97;;;1.10;;
69703;SDS011;56967;43.538;-5.646;2023-04-03T15:38:39;5.30;;;1.00;;
69703;SDS011;56967;43.538;-5.646;2023-04-03T15:41:05;6.53;;;1.60;;
69703;SDS011;56967;43.538;-5.646;2023-04-03T15:43:31;9.73;;;1.40;;
69703;SDS011;56967;43.538;-5.646;2023-04-03T15:45:58;6.68;;;1.20;;
69703;SDS011;56967;43.538;-5.646;2023-04-03T15:48:25;7.13;;;1.20;;
69703;SDS011;56967;43.538;-5.646;2023-04-03T15:50:52;3.88;;;1.20;;
69703;SDS011;56967;43.538;-5.646;2023-04-03T15:53:17;5.22;;;1.15;;
69703;SDS011;56967;43.538;-5.646;2023-04-03T15:55:43;6.93;;;1.40;;
69703;SDS011;56967;43.538;-5.646;2023-04-03T15:58:09;5.00;;;1.10;;
69703;SDS011;56967;43.538;-5.646;2023-04-03T16:00:36;5.97;;;1.00;;
69703;SDS011;56967;43.538;-5.646;2023-04-03T16:03:04;4.43;;;1.30;;
69703;SDS011;56967;43.538;-5.646;2023-04-03T16:05:33;13.15;;;1.77;;
69703;SDS011;56967;43.538;-5.646;2023-04-03T16:08:01;4.15;;;1.17;;
69703;SDS011;56967;43.538;-5.646;2023-04-03T16:10:27;5.90;;;1.20;;
69703;SDS011;56967;43.538;-5.646;2023-04-03T16:12:53;2.63;;;1.23;;
69703;SDS011;56967;43.538;-5.646;2023-04-03T16:15:19;5.85;;;1.30;;
69703;SDS011;56967;43.538;-5.646;2023-04-03T16:17:45;3.35;;;1.10;;
69703;SDS011;56967;43.538;-5.646;2023-04-03T16:20:11;6.35;;;1.20;;
69703;SDS011;56967;43.538;-5.646;2023-04-03T16:22:38;4.78;;;1.02;;
69703;SDS011;56967;43.538;-5.646;2023-04-03T16:25:05;6.55;;;1.20;;
69703;SDS011;56967;43.538;-5.646;2023-04-03T16:27:31;9.38;;;1.40;;
69703;SDS011;56967;43.538;-5.646;2023-04-03T16:29:57;7.05;;;1.30;;
69703;SDS011;56967;43.538;-5.646;2023-04-03T16:32:23;6.18;;;1.30;;
69703;SDS011;56967;43.538;-5.646;2023-04-03T16:34:52;6.60;;;1.30;;
69703;SDS011;56967;43.538;-5.646;2023-04-03T16:37:18;3.45;;;1.00;;
69703;SDS011;56967;43.538;-5.646;2023-04-03T16:39:43;5.00;;;1.40;;
69703;SDS011;56967;43.538;-5.646;2023-04-03T16:42:09;2.45;;;0.93;;
69703;SDS011;56967;43.538;-5.646;2023-04-03T16:44:35;8.38;;;1.33;;
69703;SDS011;56967;43.538;-5.646;2023-04-03T16:47:01;9.15;;;1.52;;
69703;SDS011;56967;43.538;-5.646;2023-04-03T16:49:27;6.05;;;1.10;;
69703;SDS011;56967;43.538;-5.646;2023-04-03T16:51:58;6.97;;;1.20;;